createdAt,value
2023-02-24T00:01:39.736Z,4.08
2023-02-24T00:04:10.145Z,4.12
2023-02-24T00:06:40.205Z,4.15
2023-02-24T00:09:12.498Z,4.14
2023-02-24T00:11:42.364Z,4.14
2023-02-24T00:14:11.136Z,4.10
2023-02-24T00:16:37.837Z,4.13
2023-02-24T00:19:07.587Z,4.19
2023-02-24T00:21:35.218Z,4.18
2023-02-24T00:24:02.454Z,4.17
2023-02-24T00:26:29.997Z,4.15
2023-02-24T00:29:00.131Z,4.10
2023-02-24T00:31:31.158Z,4.03
2023-02-24T00:34:00.321Z,3.98
2023-02-24T00:36:29.489Z,3.92
2023-02-24T00:38:58.832Z,3.88
2023-02-24T00:41:29.657Z,3.84
2023-02-24T00:44:06.123Z,3.79
2023-02-24T00:46:37.248Z,3.77
2023-02-24T00:49:07.740Z,3.70
2023-02-24T00:51:41.043Z,3.72
2023-02-24T00:54:08.935Z,3.74
2023-02-24T00:56:35.492Z,3.69
2023-02-24T00:59:03.543Z,3.68
2023-02-24T01:01:32.820Z,3.67
2023-02-24T01:04:07.895Z,3.63
2023-02-24T01:06:34.499Z,3.59
2023-02-24T01:09:01.307Z,3.57
2023-02-24T01:12:06.399Z,3.57
2023-02-24T01:14:34.823Z,3.53
2023-02-24T01:17:01.435Z,3.50
2023-02-24T01:19:31.606Z,3.45
2023-02-24T01:21:59.389Z,3.41
2023-02-24T01:24:26.037Z,3.37
2023-02-24T01:26:53.122Z,3.33
2023-02-24T01:29:19.879Z,3.31
2023-02-24T01:31:48.782Z,3.26
2023-02-24T01:34:17.279Z,3.20
2023-02-24T01:36:44.458Z,3.15
2023-02-24T01:39:13.696Z,3.11
2023-02-24T01:41:44.459Z,3.08
2023-02-24T01:44:15.737Z,3.03
2023-02-24T01:46:44.922Z,2.98
2023-02-24T01:49:23.558Z,2.94
2023-02-24T01:51:54.981Z,2.94
2023-02-24T01:54:26.348Z,2.88
2023-02-24T01:56:54.286Z,2.83
2023-02-24T01:59:25.016Z,2.79
2023-02-24T02:01:55.392Z,2.76
2023-02-24T02:04:28.867Z,2.68
2023-02-24T02:06:55.861Z,2.63
2023-02-24T02:09:22.769Z,2.67
2023-02-24T02:11:50.048Z,2.68
2023-02-24T02:14:20.856Z,2.65
2023-02-24T02:17:07.221Z,2.67
2023-02-24T02:20:00.442Z,2.69
2023-02-24T02:22:54.982Z,2.74
2023-02-24T02:25:33.457Z,2.80
2023-02-24T02:28:32.773Z,2.85
2023-02-24T02:31:02.539Z,2.83
2023-02-24T02:33:56.124Z,2.81
2023-02-24T02:36:34.989Z,2.82
2023-02-24T02:39:20.281Z,2.85
2023-02-24T02:41:55.974Z,2.82
2023-02-24T02:44:55.922Z,2.83
2023-02-24T02:47:26.774Z,2.86
2023-02-24T02:50:00.721Z,2.89
2023-02-24T02:52:36.092Z,2.92
2023-02-24T02:55:11.755Z,2.87
2023-02-24T02:57:47.147Z,2.78
2023-02-24T03:00:23.294Z,2.74
2023-02-24T03:02:55.371Z,2.74
2023-02-24T03:05:30.029Z,2.68
2023-02-24T03:08:00.077Z,2.67
2023-02-24T03:10:30.291Z,2.68
2023-02-24T03:13:01.423Z,2.72
2023-02-24T03:15:32.352Z,2.74
2023-02-24T03:18:10.739Z,2.73
2023-02-24T03:20:43.197Z,2.75
2023-02-24T03:23:16.846Z,2.72
2023-02-24T03:25:51.764Z,2.73
2023-02-24T03:28:30.472Z,2.72
2023-02-24T03:31:05.020Z,2.73
2023-02-24T03:33:41.029Z,2.69
2023-02-24T03:36:08.595Z,2.64
2023-02-24T03:38:38.594Z,2.61
2023-02-24T03:41:11.142Z,2.60
2023-02-24T03:43:44.976Z,2.58
2023-02-24T03:46:13.410Z,2.57
2023-02-24T03:48:45.804Z,2.60
2023-02-24T03:51:19.415Z,2.63
2023-02-24T03:54:03.817Z,2.66
2023-02-24T03:56:57.967Z,2.63
2023-02-24T03:59:34.873Z,2.64
2023-02-24T04:02:14.698Z,2.69
2023-02-24T04:04:48.357Z,2.70
2023-02-24T04:07:30.941Z,2.67
2023-02-24T04:10:23.163Z,2.69
2023-02-24T04:13:02.267Z,2.71
2023-02-24T04:15:38.441Z,2.76
2023-02-24T04:18:14.049Z,2.78
2023-02-24T04:20:43.192Z,2.78
2023-02-24T04:23:15.094Z,2.79
2023-02-24T04:25:45.985Z,2.80
2023-02-24T04:28:14.116Z,2.80
2023-02-24T04:30:44.243Z,2.79
2023-02-24T04:33:11.049Z,2.84
2023-02-24T04:35:37.898Z,2.82
2023-02-24T04:38:05.378Z,2.84
2023-02-24T04:40:32.183Z,2.88
2023-02-24T04:42:59.035Z,2.88
2023-02-24T04:45:28.957Z,2.93
2023-02-24T04:48:00.859Z,2.93
2023-02-24T04:50:33.702Z,2.91
2023-02-24T04:53:06.981Z,2.93
2023-02-24T04:55:40.224Z,2.94
2023-02-24T04:58:19.257Z,2.93
2023-02-24T05:00:49.061Z,2.93
2023-02-24T05:03:17.417Z,2.91
2023-02-24T05:05:53.904Z,2.92
2023-02-24T05:08:21.309Z,2.94
2023-02-24T05:10:48.588Z,2.97
2023-02-24T05:13:20.538Z,3.00
2023-02-24T05:15:48.251Z,3.04
2023-02-24T05:18:17.315Z,3.04
2023-02-24T05:21:07.613Z,3.05
2023-02-24T05:23:39.314Z,3.07
2023-02-24T05:26:09.257Z,3.07
2023-02-24T05:28:40.533Z,3.05
2023-02-24T05:31:10.068Z,3.04
2023-02-24T05:33:38.215Z,3.03
2023-02-24T05:36:08.944Z,3.05
2023-02-24T05:38:38.127Z,3.02
2023-02-24T05:41:07.332Z,3.04
2023-02-24T05:43:35.703Z,3.08
2023-02-24T05:46:04.302Z,3.12
2023-02-24T05:48:35.556Z,3.12
2023-02-24T05:51:05.218Z,3.11
2023-02-24T05:53:31.904Z,3.14
2023-02-24T05:56:01.307Z,3.12
2023-02-24T05:58:29.096Z,3.12
2023-02-24T06:00:56.321Z,3.15
2023-02-24T06:03:30.944Z,3.16
2023-02-24T06:05:59.280Z,3.14
2023-02-24T06:08:26.270Z,3.15
2023-02-24T06:10:53.023Z,3.17
2023-02-24T06:13:19.619Z,3.18
2023-02-24T06:15:51.635Z,3.22
2023-02-24T06:18:18.143Z,3.23
2023-02-24T06:20:51.405Z,3.28
2023-02-24T06:23:18.044Z,3.26
2023-02-24T06:25:44.801Z,3.31
2023-02-24T06:28:11.718Z,3.33
2023-02-24T06:30:38.428Z,3.38
2023-02-24T06:33:05.922Z,3.39
2023-02-24T06:35:33.451Z,3.40
2023-02-24T06:37:59.963Z,3.41
2023-02-24T06:40:26.480Z,3.43
2023-02-24T06:42:54.837Z,3.41
2023-02-24T06:45:22.423Z,3.43
2023-02-24T06:47:48.978Z,3.45
2023-02-24T06:50:23.491Z,3.48
2023-02-24T06:52:53.211Z,3.50
2023-02-24T06:55:25.848Z,3.50
2023-02-24T06:57:57.274Z,3.54
2023-02-24T07:00:36.507Z,3.56
2023-02-24T07:03:14.945Z,3.58
2023-02-24T07:05:42.501Z,3.62
2023-02-24T07:08:09.548Z,3.62
2023-02-24T07:10:36.898Z,3.65
2023-02-24T07:13:03.404Z,3.74
2023-02-24T07:15:31.985Z,3.77
2023-02-24T07:17:58.534Z,3.81
2023-02-24T07:20:26.305Z,3.81
2023-02-24T07:22:52.788Z,3.81
2023-02-24T07:25:32.755Z,3.86
2023-02-24T07:28:02.094Z,3.85
2023-02-24T07:30:30.472Z,3.86
2023-02-24T07:32:57.381Z,3.88
2023-02-24T07:35:23.996Z,3.89
2023-02-24T07:37:50.813Z,3.94
2023-02-24T07:40:18.305Z,3.98
2023-02-24T07:42:47.737Z,3.98
2023-02-24T07:45:14.733Z,4.00
2023-02-24T07:47:41.438Z,4.02
2023-02-24T07:50:14.678Z,4.05
2023-02-24T07:52:41.466Z,4.07
2023-02-24T07:55:09.472Z,4.11
2023-02-24T07:57:37.450Z,4.16
2023-02-24T08:00:18.284Z,4.18
2023-02-24T08:02:47.018Z,4.18
2023-02-24T08:05:13.812Z,4.20
2023-02-24T08:07:40.295Z,4.20
2023-02-24T08:10:14.661Z,4.19
2023-02-24T08:12:43.462Z,4.24
2023-02-24T08:15:17.541Z,4.23
2023-02-24T08:17:47.157Z,4.30
2023-02-24T08:20:14.732Z,4.34
2023-02-24T08:22:51.721Z,4.38
2023-02-24T08:25:22.636Z,4.42
2023-02-24T08:28:07.314Z,4.44
2023-02-24T08:30:38.930Z,4.46
2023-02-24T08:33:07.847Z,4.50
2023-02-24T08:35:37.458Z,4.48
2023-02-24T08:38:07.617Z,4.51
2023-02-24T08:40:37.062Z,4.55
2023-02-24T08:43:16.802Z,4.54
2023-02-24T08:45:56.494Z,4.56
2023-02-24T08:48:26.845Z,4.57
2023-02-24T08:50:57.745Z,4.61
2023-02-24T08:53:30.600Z,4.60
2023-02-24T08:56:09.575Z,4.58
2023-02-24T08:58:40.945Z,4.60
2023-02-24T09:01:24.418Z,4.61
2023-02-24T09:03:56.342Z,4.62
2023-02-24T09:06:35.211Z,4.69
2023-02-24T09:09:18.405Z,4.72
2023-02-24T09:11:49.625Z,4.75
2023-02-24T09:14:27.149Z,4.82
2023-02-24T09:17:02.293Z,4.83
2023-02-24T09:19:41.111Z,4.88
2023-02-24T09:22:31.232Z,4.90
2023-02-24T09:25:17.929Z,4.97
2023-02-24T09:27:52.181Z,5.03
2023-02-24T09:30:47.625Z,5.09
2023-02-24T09:33:20.808Z,5.17
2023-02-24T09:35:50.350Z,5.19
2023-02-24T09:38:20.056Z,5.22
2023-02-24T09:40:49.251Z,5.24
2023-02-24T09:43:24.645Z,5.28
2023-02-24T09:45:58.520Z,5.29
2023-02-24T09:48:43.627Z,5.27
2023-02-24T09:51:21.827Z,5.27
2023-02-24T09:53:54.890Z,5.28
2023-02-24T09:56:42.758Z,5.28
2023-02-24T09:59:27.266Z,5.29
2023-02-24T10:02:04.843Z,5.26
2023-02-24T10:04:49.921Z,5.30
2023-02-24T10:07:20.229Z,5.28
2023-02-24T10:10:19.431Z,5.30
2023-02-24T10:12:52.611Z,5.30
2023-02-24T10:15:56.956Z,5.31
2023-02-24T10:18:45.650Z,5.33
2023-02-24T10:21:30.937Z,5.33
2023-02-24T10:24:09.891Z,5.33
2023-02-24T10:27:00.729Z,5.33
2023-02-24T10:29:46.393Z,5.32
2023-02-24T10:32:31.883Z,5.34
2023-02-24T10:34:58.594Z,5.35
2023-02-24T10:37:29.608Z,5.39
2023-02-24T10:39:59.621Z,5.44
2023-02-24T10:42:31.830Z,5.49
2023-02-24T10:45:17.668Z,5.49
2023-02-24T11:09:52.825Z,5.74
2023-02-24T11:12:42.007Z,5.77
2023-02-24T11:15:42.816Z,5.75
2023-02-24T11:18:20.982Z,5.76
2023-02-24T11:20:53.078Z,5.82
2023-02-24T11:23:24.910Z,5.89
2023-02-24T11:25:59.188Z,5.91
2023-02-24T11:28:48.870Z,5.95
2023-02-24T11:31:35.784Z,6.00
2023-02-24T11:34:21.747Z,6.05
2023-02-24T11:37:03.018Z,6.09
2023-02-24T11:39:48.639Z,6.14
2023-02-24T11:42:24.761Z,6.15
2023-02-24T11:44:59.839Z,6.16
2023-02-24T11:47:39.032Z,6.17
2023-02-24T11:50:24.163Z,6.19
2023-02-24T11:52:54.815Z,6.20
2023-02-24T11:55:36.698Z,6.21
2023-02-24T11:58:12.717Z,6.24
2023-02-24T12:00:46.236Z,6.28
2023-02-24T12:03:29.926Z,6.31
2023-02-24T12:06:06.332Z,6.41
2023-02-24T12:08:36.383Z,6.51
2023-02-24T12:11:20.683Z,6.55
2023-02-24T12:16:48.723Z,6.68
2023-02-24T12:19:23.833Z,6.78
2023-02-24T12:21:57.367Z,6.88
2023-02-24T12:24:24.377Z,6.93
2023-02-24T12:27:09.834Z,6.92
2023-02-24T12:30:05.698Z,7.01
2023-02-24T12:32:54.384Z,7.17
2023-02-24T12:35:33.037Z,7.35
2023-02-24T12:38:05.629Z,7.52
2023-02-24T12:40:52.335Z,7.54
2023-02-24T12:43:29.908Z,7.59
2023-02-24T12:46:02.882Z,7.65
2023-02-24T12:48:57.089Z,7.78
2023-02-24T12:51:33.604Z,7.86
2023-02-24T12:54:13.001Z,7.90
2023-02-24T12:56:58.167Z,7.89
2023-02-24T12:59:28.880Z,7.93
2023-02-24T13:02:04.278Z,7.98
2023-02-24T13:04:33.799Z,8.02
2023-02-24T13:07:00.358Z,8.00
2023-02-24T13:09:45.377Z,8.01
2023-02-24T13:12:18.294Z,7.97
2023-02-24T13:14:45.855Z,7.96
2023-02-24T13:17:12.385Z,7.95
2023-02-24T13:19:41.518Z,7.93
2023-02-24T13:22:19.897Z,8.02
2023-02-24T13:24:59.799Z,8.10
2023-02-24T13:27:30.195Z,8.16
2023-02-24T13:30:01.026Z,8.22
2023-02-24T13:32:35.357Z,8.21
2023-02-24T13:35:04.851Z,8.22
2023-02-24T13:37:39.645Z,8.23
2023-02-24T13:40:16.572Z,8.21
2023-02-24T13:43:01.586Z,8.09
2023-02-24T13:45:32.522Z,7.93
2023-02-24T13:48:08.448Z,7.71
2023-02-24T13:50:57.892Z,7.56
2023-02-24T13:53:28.450Z,7.46
2023-02-24T13:56:04.327Z,7.42
2023-02-24T13:58:40.345Z,7.41
2023-02-24T14:01:14.080Z,7.38
2023-02-24T14:03:43.971Z,7.32
2023-02-24T14:06:21.000Z,7.36
2023-02-24T14:08:51.437Z,7.42
2023-02-24T14:11:18.658Z,7.51
2023-02-24T14:13:49.731Z,7.58
2023-02-24T14:16:21.979Z,7.63
2023-02-24T14:18:55.354Z,7.66
2023-02-24T14:21:25.214Z,7.72
2023-02-24T14:23:59.352Z,7.77
2023-02-24T14:26:27.275Z,7.76
2023-02-24T14:28:58.005Z,7.74
2023-02-24T14:31:26.181Z,7.72
2023-02-24T14:34:00.874Z,7.69
2023-02-24T14:36:36.014Z,7.68
2023-02-24T14:39:22.908Z,7.65
2023-02-24T14:41:51.460Z,7.59
2023-02-24T14:44:22.682Z,7.51
2023-02-24T14:46:52.500Z,7.42
2023-02-24T14:49:23.700Z,7.37
2023-02-24T14:51:57.991Z,7.35
2023-02-24T14:54:49.881Z,7.32
2023-02-24T14:57:21.931Z,7.27
2023-02-24T14:59:56.694Z,7.24
2023-02-24T15:02:32.719Z,7.24
2023-02-24T15:05:00.336Z,7.25
2023-02-24T15:07:34.458Z,7.28
2023-02-24T15:10:03.782Z,7.33
2023-02-24T15:12:33.794Z,7.34
2023-02-24T15:15:05.048Z,7.29
2023-02-24T15:17:32.600Z,7.28
2023-02-24T15:19:59.144Z,7.24
2023-02-24T15:22:34.426Z,7.27
2023-02-24T15:25:28.051Z,7.26
2023-02-24T15:28:04.112Z,7.25
2023-02-24T15:30:35.963Z,7.34
2023-02-24T15:33:07.957Z,7.42
2023-02-24T15:35:37.695Z,7.47
2023-02-24T15:38:04.489Z,7.49
2023-02-24T15:40:31.911Z,7.52
2023-02-24T15:43:08.065Z,7.55
2023-02-24T15:45:39.028Z,7.63
2023-02-24T15:48:24.411Z,7.62
2023-02-24T15:50:52.155Z,7.65
2023-02-24T15:53:20.952Z,7.63
2023-02-24T15:55:49.572Z,7.54
2023-02-24T15:58:18.897Z,7.45
2023-02-24T16:00:45.990Z,7.40
2023-02-24T16:03:12.704Z,7.38
2023-02-24T16:05:39.675Z,7.36
2023-02-24T16:08:11.753Z,7.35
2023-02-24T16:10:40.867Z,7.34
2023-02-24T16:13:17.997Z,7.28
2023-02-24T16:15:45.598Z,7.23
2023-02-24T16:18:20.953Z,7.14
2023-02-24T16:20:56.427Z,7.11
2023-02-24T16:23:27.702Z,7.11
2023-02-24T16:25:58.011Z,7.10
2023-02-24T16:28:25.479Z,7.09
2023-02-24T16:30:52.669Z,7.06
2023-02-24T16:33:22.585Z,7.02
2023-02-24T16:35:53.243Z,6.96
2023-02-24T16:38:21.455Z,6.96
2023-02-24T16:40:49.641Z,6.93
2023-02-24T16:43:17.490Z,6.85
2023-02-24T16:45:45.799Z,6.78
2023-02-24T16:48:21.312Z,6.75
2023-02-24T16:50:51.890Z,6.72
2023-02-24T16:53:20.806Z,6.68
2023-02-24T16:55:47.967Z,6.66
2023-02-24T16:58:15.318Z,6.63
2023-02-24T17:00:45.878Z,6.60
2023-02-24T17:03:20.974Z,6.60
2023-02-24T17:05:48.021Z,6.59
2023-02-24T17:08:15.840Z,6.58
2023-02-24T17:10:43.897Z,6.52
2023-02-24T17:13:13.390Z,6.42
2023-02-24T17:15:40.057Z,6.36
2023-02-24T17:18:07.486Z,6.28
2023-02-24T17:20:36.101Z,6.19
2023-02-24T17:23:02.763Z,6.10
2023-02-24T17:25:31.333Z,6.08
2023-02-24T17:27:58.438Z,6.08
2023-02-24T17:30:31.544Z,6.08
2023-02-24T17:32:58.136Z,6.05
2023-02-24T17:35:25.648Z,6.05
2023-02-24T17:37:53.395Z,6.07
2023-02-24T17:40:20.311Z,6.04
2023-02-24T17:42:47.055Z,6.02
2023-02-24T17:45:15.913Z,6.00
2023-02-24T17:47:44.003Z,5.99
2023-02-24T17:50:13.442Z,5.99
2023-02-24T17:52:40.339Z,5.99
2023-02-24T17:55:07.978Z,6.01
2023-02-24T17:57:35.314Z,6.03
2023-02-24T18:00:02.457Z,6.05
2023-02-24T18:02:29.172Z,6.04
2023-02-24T18:04:56.843Z,5.99
2023-02-24T18:07:25.284Z,5.96
2023-02-24T18:09:53.328Z,5.89
2023-02-24T18:12:21.567Z,5.82
2023-02-24T18:14:58.985Z,5.79
2023-02-24T18:17:29.382Z,5.75
2023-02-24T18:19:56.076Z,5.76
2023-02-24T18:22:23.589Z,5.73
2023-02-24T18:24:51.747Z,5.72
2023-02-24T18:27:18.600Z,5.70
2023-02-24T18:29:45.308Z,5.71
2023-02-24T18:32:13.008Z,5.68
2023-02-24T18:34:40.629Z,5.68
2023-02-24T18:37:09.200Z,5.65
2023-02-24T18:39:35.703Z,5.65
2023-02-24T18:42:02.230Z,5.64
2023-02-24T18:44:30.881Z,5.63
2023-02-24T18:46:57.384Z,5.61
2023-02-24T18:49:24.875Z,5.58
2023-02-24T18:51:51.421Z,5.57
2023-02-24T18:54:18.210Z,5.53
2023-02-24T18:56:45.716Z,5.53
2023-02-24T18:59:12.355Z,5.51
2023-02-24T19:01:41.210Z,5.52
2023-02-24T19:04:08.759Z,5.51
2023-02-24T19:06:35.974Z,5.48
2023-02-24T19:09:10.292Z,5.47
2023-02-24T19:11:39.504Z,5.48
2023-02-24T19:14:06.794Z,5.47
2023-02-24T19:16:34.308Z,5.47
2023-02-24T19:19:01.160Z,5.46
2023-02-24T19:21:30.746Z,5.48
2023-02-24T19:24:02.094Z,5.50
2023-02-24T19:26:28.985Z,5.49
2023-02-24T19:28:57.523Z,5.50
2023-02-24T19:31:26.797Z,5.50
2023-02-24T19:33:56.794Z,5.53
2023-02-24T19:36:24.609Z,5.53
2023-02-24T19:38:52.226Z,5.54
2023-02-24T19:41:19.484Z,5.52
2023-02-24T19:43:46.173Z,5.54
2023-02-24T19:46:14.198Z,5.56
2023-02-24T19:48:41.407Z,5.57
2023-02-24T19:51:09.420Z,5.57
2023-02-24T19:53:36.108Z,5.57
2023-02-24T19:56:02.949Z,5.59
2023-02-24T19:58:30.656Z,5.63
2023-02-24T20:01:04.605Z,5.64
2023-02-24T20:03:31.355Z,5.64
2023-02-24T20:05:58.888Z,5.67
2023-02-24T20:08:26.241Z,5.67
2023-02-24T20:11:01.152Z,5.69
2023-02-24T20:13:28.396Z,5.70
2023-02-24T20:16:10.547Z,5.70
2023-02-24T20:18:37.742Z,5.70
2023-02-24T20:21:04.742Z,5.71
2023-02-24T20:23:33.475Z,5.69
2023-02-24T20:26:00.884Z,5.71
2023-02-24T20:28:28.426Z,5.74
2023-02-24T20:30:56.508Z,5.72
2023-02-24T20:33:25.059Z,5.73
2023-02-24T20:35:52.924Z,5.72
2023-02-24T20:38:19.656Z,5.72
2023-02-24T20:40:55.547Z,5.71
2023-02-24T20:43:22.279Z,5.68
2023-02-24T20:45:50.075Z,5.68
2023-02-24T20:48:16.599Z,5.67
2023-02-24T20:50:43.566Z,5.66
2023-02-24T20:53:12.266Z,5.65
2023-02-24T20:55:38.835Z,5.60
2023-02-24T20:58:05.807Z,5.57
2023-02-24T21:00:34.299Z,5.58
2023-02-24T21:03:01.264Z,5.62
2023-02-24T21:05:28.855Z,5.60
2023-02-24T21:07:55.581Z,5.58
2023-02-24T21:10:23.149Z,5.58
2023-02-24T21:12:52.424Z,5.59
2023-02-24T21:15:19.914Z,5.58
2023-02-24T21:17:46.485Z,5.57
2023-02-24T21:20:13.694Z,5.55
2023-02-24T21:22:42.589Z,5.50
2023-02-24T21:25:11.626Z,5.45
2023-02-24T21:27:39.068Z,5.39
2023-02-24T21:30:08.773Z,5.33
2023-02-24T21:32:35.434Z,5.26
2023-02-24T21:35:02.394Z,5.24
2023-02-24T21:37:30.738Z,5.20
2023-02-24T21:39:57.334Z,5.18
2023-02-24T21:42:24.926Z,5.19
2023-02-24T21:44:52.681Z,5.19
2023-02-24T21:47:20.537Z,5.23
2023-02-24T21:49:47.265Z,5.17
2023-02-24T21:52:14.675Z,5.18
2023-02-24T21:54:42.403Z,5.17
2023-02-24T21:57:09.897Z,5.17
2023-02-24T21:59:36.613Z,5.12
2023-02-24T22:02:03.255Z,5.10
2023-02-24T22:04:29.892Z,5.07
2023-02-24T22:06:56.386Z,5.03
2023-02-24T22:09:23.021Z,4.99
2023-02-24T22:11:51.813Z,4.95
2023-02-24T22:14:23.857Z,4.93
2023-02-24T22:16:51.416Z,4.91
2023-02-24T22:19:19.726Z,4.92
2023-02-24T22:21:46.460Z,4.91
2023-02-24T22:24:14.492Z,4.91
2023-02-24T22:26:42.060Z,4.91
2023-02-24T22:29:09.913Z,4.88
2023-02-24T22:31:41.146Z,4.90
2023-02-24T22:34:08.718Z,4.87
2023-02-24T22:36:37.471Z,4.84
2023-02-24T22:39:05.972Z,4.81
2023-02-24T22:41:34.953Z,4.79
2023-02-24T22:44:05.692Z,4.79
2023-02-24T22:46:34.643Z,4.77
2023-02-24T22:49:01.821Z,4.74
2023-02-24T22:51:28.783Z,4.72
2023-02-24T22:53:56.900Z,4.73
2023-02-24T22:56:27.753Z,4.71
2023-02-24T22:58:56.126Z,4.67
2023-02-24T23:01:27.105Z,4.66
2023-02-24T23:03:55.731Z,4.65
2023-02-24T23:06:24.159Z,4.67
2023-02-24T23:08:52.598Z,4.64
2023-02-24T23:11:25.010Z,4.63
2023-02-24T23:13:53.147Z,4.64
2023-02-24T23:16:23.246Z,4.64
2023-02-24T23:18:52.938Z,4.64
2023-02-24T23:21:22.677Z,4.62
2023-02-24T23:23:51.760Z,4.61
2023-02-24T23:26:19.219Z,4.59
2023-02-24T23:28:47.079Z,4.58
2023-02-24T23:31:20.109Z,4.53
2023-02-24T23:33:47.786Z,4.52
2023-02-24T23:36:16.077Z,4.54
2023-02-24T23:38:43.310Z,4.54
2023-02-24T23:41:11.538Z,4.56
2023-02-24T23:43:38.908Z,4.56
2023-02-24T23:46:07.579Z,4.55
2023-02-24T23:48:34.533Z,4.55
2023-02-24T23:51:03.979Z,4.58
2023-02-24T23:53:31.952Z,4.62
2023-02-24T23:55:58.424Z,4.65
2023-02-24T23:58:26.730Z,4.67
